sensor_id;sensor_type;location;lat;lon;timestamp;P1;durP1;ratioP1;P2;durP2;ratioP2
10491;SDS011;5293;51.464;-2.566;2022-10-19T00:01:42;3.13;;;1.47;;
10491;SDS011;5293;51.464;-2.566;2022-10-19T00:04:07;4.13;;;1.27;;
10491;SDS011;5293;51.464;-2.566;2022-10-19T00:06:34;4.77;;;1.33;;
10491;SDS011;5293;51.464;-2.566;2022-10-19T00:09:08;4.20;;;1.60;;
10491;SDS011;5293;51.464;-2.566;2022-10-19T00:11:37;8.40;;;1.63;;
10491;SDS011;5293;51.464;-2.566;2022-10-19T00:14:04;5.83;;;1.47;;
10491;SDS011;5293;51.464;-2.566;2022-10-19T00:16:31;5.27;;;1.20;;
10491;SDS011;5293;51.464;-2.566;2022-10-19T00:19:01;5.10;;;1.63;;
10491;SDS011;5293;51.464;-2.566;2022-10-19T00:21:29;3.63;;;1.63;;
10491;SDS011;5293;51.464;-2.566;2022-10-19T00:23:54;7.13;;;1.60;;
10491;SDS011;5293;51.464;-2.566;2022-10-19T00:26:20;11.23;;;1.87;;
10491;SDS011;5293;51.464;-2.566;2022-10-19T00:28:46;8.97;;;2.03;;
10491;SDS011;5293;51.464;-2.566;2022-10-19T00:31:12;10.30;;;2.17;;
10491;SDS011;5293;51.464;-2.566;2022-10-19T00:33:40;4.33;;;1.83;;
10491;SDS011;5293;51.464;-2.566;2022-10-19T00:36:14;4.90;;;2.10;;
10491;SDS011;5293;51.464;-2.566;2022-10-19T00:38:40;6.40;;;1.83;;
10491;SDS011;5293;51.464;-2.566;2022-10-19T00:41:06;7.10;;;2.00;;
10491;SDS011;5293;51.464;-2.566;2022-10-19T00:43:48;5.77;;;2.20;;
10491;SDS011;5293;51.464;-2.566;2022-10-19T00:46:22;6.03;;;2.03;;
10491;SDS011;5293;51.464;-2.566;2022-10-19T00:48:49;4.77;;;2.00;;
10491;SDS011;5293;51.464;-2.566;2022-10-19T00:51:19;6.23;;;1.73;;
10491;SDS011;5293;51.464;-2.566;2022-10-19T00:53:46;6.67;;;2.30;;
10491;SDS011;5293;51.464;-2.566;2022-10-19T00:56:12;4.03;;;2.03;;
10491;SDS011;5293;51.464;-2.566;2022-10-19T00:58:39;8.97;;;2.03;;
10491;SDS011;5293;51.464;-2.566;2022-10-19T01:01:06;7.93;;;2.30;;
10491;SDS011;5293;51.464;-2.566;2022-10-19T01:03:35;8.50;;;2.00;;
10491;SDS011;5293;51.464;-2.566;2022-10-19T01:06:01;9.20;;;2.17;;
10491;SDS011;5293;51.464;-2.566;2022-10-19T01:08:27;5.70;;;1.90;;
10491;SDS011;5293;51.464;-2.566;2022-10-19T01:11:13;6.23;;;2.23;;
10491;SDS011;5293;51.464;-2.566;2022-10-19T01:17:10;6.63;;;1.90;;
10491;SDS011;5293;51.464;-2.566;2022-10-19T01:25:14;9.07;;;2.40;;
10491;SDS011;5293;51.464;-2.566;2022-10-19T01:30:41;6.83;;;2.80;;
10491;SDS011;5293;51.464;-2.566;2022-10-19T01:41:24;7.90;;;2.03;;
10491;SDS011;5293;51.464;-2.566;2022-10-19T01:44:00;6.40;;;1.87;;
10491;SDS011;5293;51.464;-2.566;2022-10-19T01:46:49;4.03;;;2.00;;
10491;SDS011;5293;51.464;-2.566;2022-10-19T01:49:21;4.07;;;1.70;;
10491;SDS011;5293;51.464;-2.566;2022-10-19T01:51:55;8.60;;;2.17;;
10491;SDS011;5293;51.464;-2.566;2022-10-19T01:54:24;5.70;;;1.67;;
10491;SDS011;5293;51.464;-2.566;2022-10-19T01:56:55;5.87;;;2.53;;
10491;SDS011;5293;51.464;-2.566;2022-10-19T01:59:24;7.23;;;2.60;;
10491;SDS011;5293;51.464;-2.566;2022-10-19T02:01:51;8.10;;;2.20;;
10491;SDS011;5293;51.464;-2.566;2022-10-19T02:04:19;9.87;;;2.50;;
10491;SDS011;5293;51.464;-2.566;2022-10-19T02:06:46;7.47;;;2.20;;
10491;SDS011;5293;51.464;-2.566;2022-10-19T02:09:14;6.20;;;2.00;;
10491;SDS011;5293;51.464;-2.566;2022-10-19T02:11:43;7.93;;;1.90;;
10491;SDS011;5293;51.464;-2.566;2022-10-19T02:14:25;7.83;;;2.37;;
10491;SDS011;5293;51.464;-2.566;2022-10-19T02:17:02;5.20;;;2.50;;
10491;SDS011;5293;51.464;-2.566;2022-10-19T02:19:35;12.20;;;2.93;;
10491;SDS011;5293;51.464;-2.566;2022-10-19T02:22:01;7.03;;;2.20;;
10491;SDS011;5293;51.464;-2.566;2022-10-19T02:24:27;8.20;;;2.40;;
10491;SDS011;5293;51.464;-2.566;2022-10-19T02:26:52;8.03;;;3.43;;
10491;SDS011;5293;51.464;-2.566;2022-10-19T02:29:19;10.00;;;3.07;;
10491;SDS011;5293;51.464;-2.566;2022-10-19T02:31:45;7.50;;;2.70;;
10491;SDS011;5293;51.464;-2.566;2022-10-19T02:34:10;6.40;;;3.23;;
10491;SDS011;5293;51.464;-2.566;2022-10-19T02:36:37;7.50;;;2.67;;
10491;SDS011;5293;51.464;-2.566;2022-10-19T02:39:03;9.77;;;2.83;;
10491;SDS011;5293;51.464;-2.566;2022-10-19T02:41:35;5.97;;;2.00;;
10491;SDS011;5293;51.464;-2.566;2022-10-19T02:44:42;5.77;;;2.20;;
10491;SDS011;5293;51.464;-2.566;2022-10-19T02:47:17;5.27;;;2.40;;
10491;SDS011;5293;51.464;-2.566;2022-10-19T02:49:46;4.97;;;2.00;;
10491;SDS011;5293;51.464;-2.566;2022-10-19T02:52:13;6.90;;;2.63;;
10491;SDS011;5293;51.464;-2.566;2022-10-19T02:54:39;11.17;;;2.50;;
10491;SDS011;5293;51.464;-2.566;2022-10-19T02:59:40;4.47;;;2.80;;
10491;SDS011;5293;51.464;-2.566;2022-10-19T03:02:06;8.70;;;3.03;;
10491;SDS011;5293;51.464;-2.566;2022-10-19T03:04:32;11.33;;;2.43;;
10491;SDS011;5293;51.464;-2.566;2022-10-19T03:06:57;7.10;;;2.57;;
10491;SDS011;5293;51.464;-2.566;2022-10-19T03:09:23;9.77;;;2.60;;
10491;SDS011;5293;51.464;-2.566;2022-10-19T03:11:49;6.97;;;2.60;;
10491;SDS011;5293;51.464;-2.566;2022-10-19T03:14:14;6.33;;;2.60;;
10491;SDS011;5293;51.464;-2.566;2022-10-19T03:16:40;10.60;;;2.93;;
10491;SDS011;5293;51.464;-2.566;2022-10-19T03:19:05;9.50;;;2.30;;
10491;SDS011;5293;51.464;-2.566;2022-10-19T03:21:32;8.73;;;3.07;;
10491;SDS011;5293;51.464;-2.566;2022-10-19T03:23:58;9.47;;;2.77;;
10491;SDS011;5293;51.464;-2.566;2022-10-19T03:26:25;9.27;;;3.47;;
10491;SDS011;5293;51.464;-2.566;2022-10-19T03:28:50;10.33;;;3.03;;
10491;SDS011;5293;51.464;-2.566;2022-10-19T03:31:16;11.40;;;3.43;;
10491;SDS011;5293;51.464;-2.566;2022-10-19T03:33:42;9.13;;;2.97;;
10491;SDS011;5293;51.464;-2.566;2022-10-19T03:36:27;6.47;;;3.00;;
10491;SDS011;5293;51.464;-2.566;2022-10-19T03:38:58;8.77;;;2.40;;
10491;SDS011;5293;51.464;-2.566;2022-10-19T03:41:29;9.67;;;2.43;;
10491;SDS011;5293;51.464;-2.566;2022-10-19T03:43:57;9.70;;;2.90;;
10491;SDS011;5293;51.464;-2.566;2022-10-19T03:46:23;9.03;;;3.10;;
10491;SDS011;5293;51.464;-2.566;2022-10-19T03:48:49;7.73;;;3.13;;
10491;SDS011;5293;51.464;-2.566;2022-10-19T03:51:16;7.83;;;2.90;;
10491;SDS011;5293;51.464;-2.566;2022-10-19T03:53:45;9.63;;;3.07;;
10491;SDS011;5293;51.464;-2.566;2022-10-19T03:56:12;12.43;;;3.00;;
10491;SDS011;5293;51.464;-2.566;2022-10-19T03:58:40;7.70;;;3.00;;
10491;SDS011;5293;51.464;-2.566;2022-10-19T04:01:11;12.47;;;3.40;;
10491;SDS011;5293;51.464;-2.566;2022-10-19T04:03:41;10.90;;;2.97;;
10491;SDS011;5293;51.464;-2.566;2022-10-19T04:06:09;7.03;;;2.90;;
10491;SDS011;5293;51.464;-2.566;2022-10-19T04:08:37;13.80;;;3.50;;
10491;SDS011;5293;51.464;-2.566;2022-10-19T04:11:04;8.90;;;3.70;;
10491;SDS011;5293;51.464;-2.566;2022-10-19T04:13:32;8.73;;;3.13;;
10491;SDS011;5293;51.464;-2.566;2022-10-19T04:15:58;8.07;;;3.33;;
10491;SDS011;5293;51.464;-2.566;2022-10-19T04:18:24;9.07;;;3.40;;
10491;SDS011;5293;51.464;-2.566;2022-10-19T04:20:56;9.17;;;3.07;;
10491;SDS011;5293;51.464;-2.566;2022-10-19T04:23:27;7.87;;;2.93;;
10491;SDS011;5293;51.464;-2.566;2022-10-19T04:26:02;6.60;;;3.40;;
10491;SDS011;5293;51.464;-2.566;2022-10-19T04:28:30;8.40;;;4.63;;
10491;SDS011;5293;51.464;-2.566;2022-10-19T04:31:00;7.27;;;2.73;;
10491;SDS011;5293;51.464;-2.566;2022-10-19T04:33:27;8.43;;;3.10;;
10491;SDS011;5293;51.464;-2.566;2022-10-19T04:35:59;7.07;;;2.63;;
10491;SDS011;5293;51.464;-2.566;2022-10-19T04:38:29;8.20;;;3.10;;
10491;SDS011;5293;51.464;-2.566;2022-10-19T04:40:57;12.93;;;3.20;;
10491;SDS011;5293;51.464;-2.566;2022-10-19T04:43:32;6.33;;;3.00;;
10491;SDS011;5293;51.464;-2.566;2022-10-19T04:46:05;15.13;;;2.67;;
10491;SDS011;5293;51.464;-2.566;2022-10-19T04:48:37;7.00;;;3.20;;
10491;SDS011;5293;51.464;-2.566;2022-10-19T04:51:04;6.83;;;2.90;;
10491;SDS011;5293;51.464;-2.566;2022-10-19T04:53:30;9.10;;;2.73;;
10491;SDS011;5293;51.464;-2.566;2022-10-19T04:55:57;8.70;;;2.93;;
10491;SDS011;5293;51.464;-2.566;2022-10-19T04:58:23;6.47;;;2.97;;
10491;SDS011;5293;51.464;-2.566;2022-10-19T05:00:49;10.37;;;3.30;;
10491;SDS011;5293;51.464;-2.566;2022-10-19T05:03:15;7.87;;;2.97;;
10491;SDS011;5293;51.464;-2.566;2022-10-19T05:05:41;5.63;;;3.07;;
10491;SDS011;5293;51.464;-2.566;2022-10-19T05:08:07;8.27;;;2.90;;
10491;SDS011;5293;51.464;-2.566;2022-10-19T05:10:35;10.80;;;2.90;;
10491;SDS011;5293;51.464;-2.566;2022-10-19T05:13:01;7.37;;;2.93;;
10491;SDS011;5293;51.464;-2.566;2022-10-19T05:15:27;13.50;;;3.37;;
10491;SDS011;5293;51.464;-2.566;2022-10-19T05:17:54;9.00;;;2.97;;
10491;SDS011;5293;51.464;-2.566;2022-10-19T05:20:20;10.97;;;2.93;;
10491;SDS011;5293;51.464;-2.566;2022-10-19T05:22:46;8.37;;;3.20;;
10491;SDS011;5293;51.464;-2.566;2022-10-19T05:25:12;6.57;;;3.00;;
10491;SDS011;5293;51.464;-2.566;2022-10-19T05:27:38;6.17;;;2.47;;
10491;SDS011;5293;51.464;-2.566;2022-10-19T05:30:04;11.07;;;2.80;;
10491;SDS011;5293;51.464;-2.566;2022-10-19T05:32:30;5.73;;;2.33;;
10491;SDS011;5293;51.464;-2.566;2022-10-19T05:34:56;11.20;;;2.73;;
10491;SDS011;5293;51.464;-2.566;2022-10-19T05:37:22;8.80;;;3.17;;
10491;SDS011;5293;51.464;-2.566;2022-10-19T05:39:49;12.80;;;3.17;;
10491;SDS011;5293;51.464;-2.566;2022-10-19T05:42:15;11.47;;;3.37;;
10491;SDS011;5293;51.464;-2.566;2022-10-19T05:44:41;9.90;;;3.00;;
10491;SDS011;5293;51.464;-2.566;2022-10-19T05:47:06;7.20;;;3.27;;
10491;SDS011;5293;51.464;-2.566;2022-10-19T05:49:32;8.10;;;2.80;;
10491;SDS011;5293;51.464;-2.566;2022-10-19T05:51:58;9.50;;;2.90;;
10491;SDS011;5293;51.464;-2.566;2022-10-19T05:54:23;8.87;;;3.87;;
10491;SDS011;5293;51.464;-2.566;2022-10-19T05:56:49;6.37;;;2.67;;
10491;SDS011;5293;51.464;-2.566;2022-10-19T05:59:16;11.87;;;3.17;;
10491;SDS011;5293;51.464;-2.566;2022-10-19T06:01:44;12.27;;;3.37;;
10491;SDS011;5293;51.464;-2.566;2022-10-19T06:04:10;8.17;;;3.20;;
10491;SDS011;5293;51.464;-2.566;2022-10-19T06:06:39;8.07;;;2.30;;
10491;SDS011;5293;51.464;-2.566;2022-10-19T06:09:05;7.43;;;2.90;;
10491;SDS011;5293;51.464;-2.566;2022-10-19T06:11:32;4.53;;;3.07;;
10491;SDS011;5293;51.464;-2.566;2022-10-19T06:14:00;6.03;;;2.50;;
10491;SDS011;5293;51.464;-2.566;2022-10-19T06:16:29;8.40;;;3.03;;
10491;SDS011;5293;51.464;-2.566;2022-10-19T06:18:55;10.77;;;2.80;;
10491;SDS011;5293;51.464;-2.566;2022-10-19T06:21:26;11.10;;;2.60;;
10491;SDS011;5293;51.464;-2.566;2022-10-19T06:23:54;7.27;;;3.07;;
10491;SDS011;5293;51.464;-2.566;2022-10-19T06:26:22;7.33;;;3.07;;
10491;SDS011;5293;51.464;-2.566;2022-10-19T06:28:49;11.13;;;2.93;;
10491;SDS011;5293;51.464;-2.566;2022-10-19T06:31:15;8.33;;;3.07;;
10491;SDS011;5293;51.464;-2.566;2022-10-19T06:33:42;6.30;;;3.13;;
10491;SDS011;5293;51.464;-2.566;2022-10-19T06:36:13;6.77;;;3.33;;
10491;SDS011;5293;51.464;-2.566;2022-10-19T06:38:41;6.17;;;2.90;;
10491;SDS011;5293;51.464;-2.566;2022-10-19T06:41:08;9.57;;;4.13;;
10491;SDS011;5293;51.464;-2.566;2022-10-19T06:43:34;7.20;;;2.90;;
10491;SDS011;5293;51.464;-2.566;2022-10-19T06:46:03;8.10;;;3.33;;
10491;SDS011;5293;51.464;-2.566;2022-10-19T06:48:31;10.73;;;3.07;;
10491;SDS011;5293;51.464;-2.566;2022-10-19T06:51:00;7.20;;;3.57;;
10491;SDS011;5293;51.464;-2.566;2022-10-19T06:53:28;8.37;;;3.07;;
10491;SDS011;5293;51.464;-2.566;2022-10-19T06:56:00;10.97;;;3.47;;
10491;SDS011;5293;51.464;-2.566;2022-10-19T06:58:28;10.37;;;3.60;;
10491;SDS011;5293;51.464;-2.566;2022-10-19T07:00:58;11.33;;;3.63;;
10491;SDS011;5293;51.464;-2.566;2022-10-19T07:03:25;6.97;;;3.20;;
10491;SDS011;5293;51.464;-2.566;2022-10-19T07:05:57;8.67;;;3.63;;
10491;SDS011;5293;51.464;-2.566;2022-10-19T07:08:25;12.93;;;3.90;;
10491;SDS011;5293;51.464;-2.566;2022-10-19T07:10:53;13.00;;;3.90;;
10491;SDS011;5293;51.464;-2.566;2022-10-19T07:13:21;9.63;;;4.13;;
10491;SDS011;5293;51.464;-2.566;2022-10-19T07:15:47;11.33;;;3.67;;
10491;SDS011;5293;51.464;-2.566;2022-10-19T07:18:13;9.27;;;3.70;;
10491;SDS011;5293;51.464;-2.566;2022-10-19T07:20:40;10.83;;;3.33;;
10491;SDS011;5293;51.464;-2.566;2022-10-19T07:23:06;10.07;;;3.50;;
10491;SDS011;5293;51.464;-2.566;2022-10-19T07:25:32;11.87;;;3.87;;
10491;SDS011;5293;51.464;-2.566;2022-10-19T07:27:58;12.00;;;4.60;;
10491;SDS011;5293;51.464;-2.566;2022-10-19T07:30:23;9.90;;;4.07;;
10491;SDS011;5293;51.464;-2.566;2022-10-19T07:32:49;15.43;;;4.10;;
10491;SDS011;5293;51.464;-2.566;2022-10-19T07:35:15;8.93;;;3.60;;
10491;SDS011;5293;51.464;-2.566;2022-10-19T07:37:41;10.17;;;4.80;;
10491;SDS011;5293;51.464;-2.566;2022-10-19T07:40:06;13.50;;;7.00;;
10491;SDS011;5293;51.464;-2.566;2022-10-19T07:42:32;9.60;;;4.40;;
10491;SDS011;5293;51.464;-2.566;2022-10-19T07:45:01;11.17;;;4.37;;
10491;SDS011;5293;51.464;-2.566;2022-10-19T07:47:27;11.53;;;4.57;;
10491;SDS011;5293;51.464;-2.566;2022-10-19T07:49:53;13.60;;;4.90;;
10491;SDS011;5293;51.464;-2.566;2022-10-19T07:52:19;9.33;;;4.97;;
10491;SDS011;5293;51.464;-2.566;2022-10-19T07:54:44;11.67;;;4.23;;
10491;SDS011;5293;51.464;-2.566;2022-10-19T07:57:13;12.13;;;4.73;;
10491;SDS011;5293;51.464;-2.566;2022-10-19T07:59:39;11.40;;;4.20;;
10491;SDS011;5293;51.464;-2.566;2022-10-19T08:02:07;10.40;;;4.43;;
10491;SDS011;5293;51.464;-2.566;2022-10-19T08:04:39;10.57;;;4.60;;
10491;SDS011;5293;51.464;-2.566;2022-10-19T08:07:05;15.57;;;6.10;;
10491;SDS011;5293;51.464;-2.566;2022-10-19T08:09:31;14.33;;;5.23;;
10491;SDS011;5293;51.464;-2.566;2022-10-19T08:11:56;15.03;;;4.63;;
10491;SDS011;5293;51.464;-2.566;2022-10-19T08:14:22;13.93;;;4.37;;
10491;SDS011;5293;51.464;-2.566;2022-10-19T08:16:47;8.70;;;3.93;;
10491;SDS011;5293;51.464;-2.566;2022-10-19T08:19:14;15.70;;;4.57;;
10491;SDS011;5293;51.464;-2.566;2022-10-19T08:21:43;12.03;;;3.93;;
10491;SDS011;5293;51.464;-2.566;2022-10-19T08:24:11;9.93;;;4.20;;
10491;SDS011;5293;51.464;-2.566;2022-10-19T08:26:38;9.60;;;4.23;;
10491;SDS011;5293;51.464;-2.566;2022-10-19T08:29:06;10.73;;;4.30;;
10491;SDS011;5293;51.464;-2.566;2022-10-19T08:31:34;10.03;;;4.23;;
10491;SDS011;5293;51.464;-2.566;2022-10-19T08:34:00;13.57;;;4.40;;
10491;SDS011;5293;51.464;-2.566;2022-10-19T08:36:26;10.20;;;4.20;;
10491;SDS011;5293;51.464;-2.566;2022-10-19T08:38:55;13.83;;;4.53;;
10491;SDS011;5293;51.464;-2.566;2022-10-19T08:49:25;10.90;;;3.90;;
10491;SDS011;5293;51.464;-2.566;2022-10-19T08:51:54;14.73;;;4.50;;
10491;SDS011;5293;51.464;-2.566;2022-10-19T08:54:22;11.97;;;4.67;;
10491;SDS011;5293;51.464;-2.566;2022-10-19T08:57:17;8.20;;;3.90;;
10491;SDS011;5293;51.464;-2.566;2022-10-19T09:00:07;10.93;;;4.43;;
10491;SDS011;5293;51.464;-2.566;2022-10-19T09:05:45;8.93;;;4.00;;
10491;SDS011;5293;51.464;-2.566;2022-10-19T09:08:30;9.03;;;3.90;;
10491;SDS011;5293;51.464;-2.566;2022-10-19T09:10:57;15.97;;;5.27;;
10491;SDS011;5293;51.464;-2.566;2022-10-19T09:15:50;8.53;;;3.47;;
10491;SDS011;5293;51.464;-2.566;2022-10-19T09:20:47;12.05;;;4.15;;
10491;SDS011;5293;51.464;-2.566;2022-10-19T09:23:23;10.20;;;3.47;;
10491;SDS011;5293;51.464;-2.566;2022-10-19T09:25:53;8.63;;;3.43;;
10491;SDS011;5293;51.464;-2.566;2022-10-19T09:28:26;11.77;;;3.50;;
10491;SDS011;5293;51.464;-2.566;2022-10-19T09:31:03;7.87;;;3.10;;
10491;SDS011;5293;51.464;-2.566;2022-10-19T09:33:36;8.02;;;3.10;;
10491;SDS011;5293;51.464;-2.566;2022-10-19T09:36:03;6.13;;;3.47;;
10491;SDS011;5293;51.464;-2.566;2022-10-19T09:38:31;10.80;;;3.58;;
10491;SDS011;5293;51.464;-2.566;2022-10-19T09:40:57;7.20;;;2.80;;
10491;SDS011;5293;51.464;-2.566;2022-10-19T09:43:35;7.87;;;3.30;;
10491;SDS011;5293;51.464;-2.566;2022-10-19T09:46:07;9.50;;;3.87;;
10491;SDS011;5293;51.464;-2.566;2022-10-19T09:51:11;6.70;;;3.20;;
10491;SDS011;5293;51.464;-2.566;2022-10-19T09:53:42;5.47;;;2.90;;
10491;SDS011;5293;51.464;-2.566;2022-10-19T09:56:16;6.07;;;2.43;;
10491;SDS011;5293;51.464;-2.566;2022-10-19T09:58:50;9.07;;;3.40;;
10491;SDS011;5293;51.464;-2.566;2022-10-19T10:01:36;9.50;;;3.50;;
10491;SDS011;5293;51.464;-2.566;2022-10-19T10:04:06;10.40;;;3.83;;
10491;SDS011;5293;51.464;-2.566;2022-10-19T10:06:40;15.53;;;3.70;;
10491;SDS011;5293;51.464;-2.566;2022-10-19T10:09:18;16.80;;;3.90;;
10491;SDS011;5293;51.464;-2.566;2022-10-19T10:11:50;13.70;;;3.63;;
10491;SDS011;5293;51.464;-2.566;2022-10-19T10:14:22;6.60;;;3.20;;
10491;SDS011;5293;51.464;-2.566;2022-10-19T10:17:00;9.00;;;3.13;;
10491;SDS011;5293;51.464;-2.566;2022-10-19T10:19:28;8.80;;;3.40;;
10491;SDS011;5293;51.464;-2.566;2022-10-19T10:21:56;9.87;;;2.97;;
10491;SDS011;5293;51.464;-2.566;2022-10-19T10:24:26;7.23;;;2.33;;
10491;SDS011;5293;51.464;-2.566;2022-10-19T10:26:58;6.50;;;3.33;;
10491;SDS011;5293;51.464;-2.566;2022-10-19T10:29:27;12.67;;;3.13;;
10491;SDS011;5293;51.464;-2.566;2022-10-19T10:32:02;9.70;;;3.00;;
10491;SDS011;5293;51.464;-2.566;2022-10-19T10:34:54;8.53;;;2.50;;
10491;SDS011;5293;51.464;-2.566;2022-10-19T10:39:55;7.63;;;2.67;;
10491;SDS011;5293;51.464;-2.566;2022-10-19T10:42:33;5.68;;;2.40;;
10491;SDS011;5293;51.464;-2.566;2022-10-19T10:45:10;5.87;;;2.33;;
10491;SDS011;5293;51.464;-2.566;2022-10-19T10:47:42;5.80;;;2.37;;
10491;SDS011;5293;51.464;-2.566;2022-10-19T10:50:15;6.03;;;2.13;;
10491;SDS011;5293;51.464;-2.566;2022-10-19T10:53:02;7.60;;;2.23;;
10491;SDS011;5293;51.464;-2.566;2022-10-19T10:55:29;7.07;;;2.53;;
10491;SDS011;5293;51.464;-2.566;2022-10-19T10:58:15;4.90;;;2.40;;
10491;SDS011;5293;51.464;-2.566;2022-10-19T11:00:47;6.93;;;2.47;;
10491;SDS011;5293;51.464;-2.566;2022-10-19T11:03:20;8.57;;;2.80;;
10491;SDS011;5293;51.464;-2.566;2022-10-19T11:05:54;4.30;;;2.17;;
10491;SDS011;5293;51.464;-2.566;2022-10-19T11:11:18;5.00;;;2.30;;
10491;SDS011;5293;51.464;-2.566;2022-10-19T11:13:58;8.27;;;2.70;;
10491;SDS011;5293;51.464;-2.566;2022-10-19T11:16:43;9.40;;;2.40;;
10491;SDS011;5293;51.464;-2.566;2022-10-19T11:19:21;4.53;;;2.27;;
10491;SDS011;5293;51.464;-2.566;2022-10-19T11:24:38;5.40;;;2.47;;
10491;SDS011;5293;51.464;-2.566;2022-10-19T11:27:27;7.43;;;2.47;;
10491;SDS011;5293;51.464;-2.566;2022-10-19T11:35:35;4.40;;;2.33;;
10491;SDS011;5293;51.464;-2.566;2022-10-19T11:38:17;9.33;;;2.23;;
10491;SDS011;5293;51.464;-2.566;2022-10-19T11:40:59;5.07;;;1.60;;
10491;SDS011;5293;51.464;-2.566;2022-10-19T11:43:37;6.83;;;1.80;;
10491;SDS011;5293;51.464;-2.566;2022-10-19T11:46:42;8.43;;;1.93;;
10491;SDS011;5293;51.464;-2.566;2022-10-19T11:51:52;4.93;;;2.00;;
10491;SDS011;5293;51.464;-2.566;2022-10-19T11:57:24;4.90;;;2.03;;
10491;SDS011;5293;51.464;-2.566;2022-10-19T12:00:05;9.83;;;2.10;;
10491;SDS011;5293;51.464;-2.566;2022-10-19T12:13:53;3.70;;;2.00;;
10491;SDS011;5293;51.464;-2.566;2022-10-19T12:16:43;7.88;;;2.28;;
10491;SDS011;5293;51.464;-2.566;2022-10-19T12:19:15;4.10;;;1.80;;
10491;SDS011;5293;51.464;-2.566;2022-10-19T12:21:48;3.83;;;1.90;;
10491;SDS011;5293;51.464;-2.566;2022-10-19T12:24:22;4.80;;;1.90;;
10491;SDS011;5293;51.464;-2.566;2022-10-19T12:26:49;5.40;;;1.90;;
10491;SDS011;5293;51.464;-2.566;2022-10-19T12:29:27;2.77;;;1.70;;
10491;SDS011;5293;51.464;-2.566;2022-10-19T12:31:59;6.23;;;1.77;;
10491;SDS011;5293;51.464;-2.566;2022-10-19T12:37:40;11.67;;;3.13;;
10491;SDS011;5293;51.464;-2.566;2022-10-19T12:40:09;9.40;;;2.17;;
10491;SDS011;5293;51.464;-2.566;2022-10-19T12:55:59;3.73;;;2.27;;
10491;SDS011;5293;51.464;-2.566;2022-10-19T12:58:27;4.10;;;1.80;;
10491;SDS011;5293;51.464;-2.566;2022-10-19T13:01:04;11.73;;;2.60;;
10491;SDS011;5293;51.464;-2.566;2022-10-19T13:03:39;6.23;;;2.33;;
10491;SDS011;5293;51.464;-2.566;2022-10-19T13:06:08;4.30;;;2.07;;
10491;SDS011;5293;51.464;-2.566;2022-10-19T13:08:41;5.50;;;2.13;;
10491;SDS011;5293;51.464;-2.566;2022-10-19T13:11:11;6.53;;;2.50;;
10491;SDS011;5293;51.464;-2.566;2022-10-19T13:40:54;5.90;;;2.00;;
10491;SDS011;5293;51.464;-2.566;2022-10-19T13:43:22;8.07;;;2.33;;
10491;SDS011;5293;51.464;-2.566;2022-10-19T13:48:36;4.27;;;1.90;;
10491;SDS011;5293;51.464;-2.566;2022-10-19T13:51:21;8.13;;;2.37;;
10491;SDS011;5293;51.464;-2.566;2022-10-19T14:07:42;7.50;;;2.10;;
10491;SDS011;5293;51.464;-2.566;2022-10-19T14:10:27;5.80;;;2.27;;
10491;SDS011;5293;51.464;-2.566;2022-10-19T14:12:53;4.70;;;1.90;;
10491;SDS011;5293;51.464;-2.566;2022-10-19T14:17:46;4.73;;;2.17;;
10491;SDS011;5293;51.464;-2.566;2022-10-19T14:23:16;2.17;;;1.60;;
10491;SDS011;5293;51.464;-2.566;2022-10-19T14:25:49;3.40;;;1.80;;
10491;SDS011;5293;51.464;-2.566;2022-10-19T14:28:17;2.97;;;1.90;;
10491;SDS011;5293;51.464;-2.566;2022-10-19T14:30:43;3.73;;;1.80;;
10491;SDS011;5293;51.464;-2.566;2022-10-19T14:33:17;8.03;;;2.63;;
10491;SDS011;5293;51.464;-2.566;2022-10-19T14:35:47;8.53;;;2.40;;
10491;SDS011;5293;51.464;-2.566;2022-10-19T14:38:16;6.40;;;1.60;;
10491;SDS011;5293;51.464;-2.566;2022-10-19T14:40:45;5.53;;;2.20;;
10491;SDS011;5293;51.464;-2.566;2022-10-19T14:48:31;3.80;;;1.90;;
10491;SDS011;5293;51.464;-2.566;2022-10-19T14:51:01;8.30;;;2.10;;
10491;SDS011;5293;51.464;-2.566;2022-10-19T14:53:47;6.47;;;1.77;;
10491;SDS011;5293;51.464;-2.566;2022-10-19T15:01:46;5.07;;;1.80;;
10491;SDS011;5293;51.464;-2.566;2022-10-19T15:04:18;10.37;;;2.10;;
10491;SDS011;5293;51.464;-2.566;2022-10-19T15:06:47;7.20;;;1.77;;
10491;SDS011;5293;51.464;-2.566;2022-10-19T15:09:24;5.87;;;2.10;;
10491;SDS011;5293;51.464;-2.566;2022-10-19T15:11:53;8.00;;;2.23;;
10491;SDS011;5293;51.464;-2.566;2022-10-19T15:14:25;8.23;;;2.20;;
10491;SDS011;5293;51.464;-2.566;2022-10-19T15:16:56;9.13;;;2.00;;
10491;SDS011;5293;51.464;-2.566;2022-10-19T15:27:39;4.10;;;2.00;;
10491;SDS011;5293;51.464;-2.566;2022-10-19T15:32:42;3.80;;;2.00;;
10491;SDS011;5293;51.464;-2.566;2022-10-19T15:37:49;4.33;;;1.83;;
10491;SDS011;5293;51.464;-2.566;2022-10-19T15:40:25;8.10;;;2.30;;
10491;SDS011;5293;51.464;-2.566;2022-10-19T15:42:56;7.20;;;3.17;;
10491;SDS011;5293;51.464;-2.566;2022-10-19T15:45:40;6.10;;;2.10;;
10491;SDS011;5293;51.464;-2.566;2022-10-19T15:48:23;7.03;;;2.50;;
10491;SDS011;5293;51.464;-2.566;2022-10-19T15:50:51;8.13;;;1.80;;
10491;SDS011;5293;51.464;-2.566;2022-10-19T15:53:18;6.57;;;2.07;;
10491;SDS011;5293;51.464;-2.566;2022-10-19T15:55:44;7.30;;;2.27;;
10491;SDS011;5293;51.464;-2.566;2022-10-19T15:58:10;6.67;;;2.20;;
10491;SDS011;5293;51.464;-2.566;2022-10-19T16:00:37;8.33;;;2.10;;
10491;SDS011;5293;51.464;-2.566;2022-10-19T16:03:03;8.70;;;2.37;;
10491;SDS011;5293;51.464;-2.566;2022-10-19T16:05:29;7.17;;;2.53;;
10491;SDS011;5293;51.464;-2.566;2022-10-19T16:07:55;5.13;;;2.80;;
10491;SDS011;5293;51.464;-2.566;2022-10-19T16:10:22;8.63;;;2.30;;
10491;SDS011;5293;51.464;-2.566;2022-10-19T16:12:49;3.07;;;1.70;;
10491;SDS011;5293;51.464;-2.566;2022-10-19T16:15:16;3.13;;;1.73;;
10491;SDS011;5293;51.464;-2.566;2022-10-19T16:17:50;9.43;;;2.77;;
10491;SDS011;5293;51.464;-2.566;2022-10-19T16:20:22;7.87;;;2.60;;
10491;SDS011;5293;51.464;-2.566;2022-10-19T16:22:48;8.67;;;2.50;;
10491;SDS011;5293;51.464;-2.566;2022-10-19T16:25:14;7.07;;;2.10;;
10491;SDS011;5293;51.464;-2.566;2022-10-19T16:27:40;6.27;;;1.90;;
10491;SDS011;5293;51.464;-2.566;2022-10-19T16:30:06;6.60;;;1.93;;
10491;SDS011;5293;51.464;-2.566;2022-10-19T16:32:32;6.70;;;2.57;;
10491;SDS011;5293;51.464;-2.566;2022-10-19T16:34:58;9.07;;;2.37;;
10491;SDS011;5293;51.464;-2.566;2022-10-19T16:37:24;7.93;;;2.37;;
10491;SDS011;5293;51.464;-2.566;2022-10-19T16:39:49;6.73;;;2.40;;
10491;SDS011;5293;51.464;-2.566;2022-10-19T16:42:15;10.93;;;2.50;;
10491;SDS011;5293;51.464;-2.566;2022-10-19T16:44:42;7.90;;;2.83;;
10491;SDS011;5293;51.464;-2.566;2022-10-19T16:47:08;10.17;;;2.90;;
10491;SDS011;5293;51.464;-2.566;2022-10-19T16:49:34;9.53;;;2.83;;
10491;SDS011;5293;51.464;-2.566;2022-10-19T16:51:59;6.50;;;2.80;;
10491;SDS011;5293;51.464;-2.566;2022-10-19T16:54:25;8.27;;;2.80;;
10491;SDS011;5293;51.464;-2.566;2022-10-19T16:56:53;9.80;;;2.50;;
10491;SDS011;5293;51.464;-2.566;2022-10-19T16:59:19;7.60;;;2.73;;
10491;SDS011;5293;51.464;-2.566;2022-10-19T17:01:45;6.23;;;2.93;;
10491;SDS011;5293;51.464;-2.566;2022-10-19T17:04:12;10.63;;;2.87;;
10491;SDS011;5293;51.464;-2.566;2022-10-19T17:06:38;9.30;;;2.80;;
10491;SDS011;5293;51.464;-2.566;2022-10-19T17:09:04;8.10;;;2.77;;
10491;SDS011;5293;51.464;-2.566;2022-10-19T17:11:32;8.83;;;2.93;;
10491;SDS011;5293;51.464;-2.566;2022-10-19T17:14:00;11.73;;;2.90;;
10491;SDS011;5293;51.464;-2.566;2022-10-19T17:16:28;6.37;;;3.03;;
10491;SDS011;5293;51.464;-2.566;2022-10-19T17:18:55;6.83;;;3.47;;
10491;SDS011;5293;51.464;-2.566;2022-10-19T17:21:24;10.27;;;2.80;;
10491;SDS011;5293;51.464;-2.566;2022-10-19T17:23:53;6.17;;;3.20;;
10491;SDS011;5293;51.464;-2.566;2022-10-19T17:26:24;5.93;;;2.87;;
10491;SDS011;5293;51.464;-2.566;2022-10-19T17:28:50;13.60;;;3.47;;
10491;SDS011;5293;51.464;-2.566;2022-10-19T17:31:16;9.83;;;3.33;;
10491;SDS011;5293;51.464;-2.566;2022-10-19T17:33:42;9.73;;;3.37;;
10491;SDS011;5293;51.464;-2.566;2022-10-19T17:36:12;18.73;;;3.40;;
10491;SDS011;5293;51.464;-2.566;2022-10-19T17:38:39;6.57;;;2.87;;
10491;SDS011;5293;51.464;-2.566;2022-10-19T17:41:06;14.10;;;3.67;;
10491;SDS011;5293;51.464;-2.566;2022-10-19T17:43:35;13.27;;;3.03;;